KDBN/DBN METAR and TAF weather

Enter ICAO airport designator
Station Type Date Time Source
KDBN METAR 2018/01/17 06:35 UTC NOAA

KDBN 170635Z AUTO 33003KT 10SM SCT050 OVC060 07/02 A3031 RMK AO2


Station Type Date Time Source
KDBN Decoded METAR 2018/01/17 06:35 UTC NOAA

Dublin, W H 'Bud' Barron Airport, GA, United States (KDBN) 32-33-52N 082-59-06W
Jan 17, 2018 - 01:35 AM EST / 2018.01.17 0635 UTC
Wind: from the NNW (330 degrees) at 3 MPH (3 KT):0
Visibility: 10 mile(s):0
Sky conditions: overcast
Temperature: 44 F (7 C)
Dew Point: 35 F (2 C)
Relative Humidity: 70%
Pressure (altimeter): 30.31 in. Hg (1026 hPa)
ob: KDBN 170635Z AUTO 33003KT 10SM SCT050 OVC060 07/02 A3031 RMK AO2
cycle: 6

Station Type Date Time Source
KDBN TAF UTC NOAA

Error!


Example: see airport list